sensor_id;sensor_type;location;lat;lon;timestamp;P1;durP1;ratioP1;P2;durP2;ratioP2
75377;SDS011;63959;51.960;5.886;2023-08-07T00:00:23;8.48;;;1.90;;
75377;SDS011;63959;51.960;5.886;2023-08-07T00:02:51;11.05;;;2.75;;
75377;SDS011;63959;51.960;5.886;2023-08-07T00:05:20;9.63;;;1.90;;
75377;SDS011;63959;51.960;5.886;2023-08-07T00:07:49;5.63;;;1.50;;
75377;SDS011;63959;51.960;5.886;2023-08-07T00:10:17;7.97;;;1.52;;
75377;SDS011;63959;51.960;5.886;2023-08-07T00:12:46;10.23;;;2.60;;
75377;SDS011;63959;51.960;5.886;2023-08-07T00:15:15;11.43;;;1.73;;
75377;SDS011;63959;51.960;5.886;2023-08-07T00:17:46;6.78;;;1.30;;
75377;SDS011;63959;51.960;5.886;2023-08-07T00:20:15;7.28;;;1.38;;
75377;SDS011;63959;51.960;5.886;2023-08-07T00:22:43;5.75;;;1.10;;
75377;SDS011;63959;51.960;5.886;2023-08-07T00:25:12;4.50;;;1.20;;
75377;SDS011;63959;51.960;5.886;2023-08-07T00:27:41;3.28;;;1.00;;
75377;SDS011;63959;51.960;5.886;2023-08-07T00:30:10;3.60;;;1.20;;
75377;SDS011;63959;51.960;5.886;2023-08-07T00:32:39;6.35;;;1.15;;
75377;SDS011;63959;51.960;5.886;2023-08-07T00:35:11;4.63;;;1.15;;
75377;SDS011;63959;51.960;5.886;2023-08-07T00:37:39;4.85;;;1.08;;
75377;SDS011;63959;51.960;5.886;2023-08-07T00:40:08;4.03;;;1.02;;
75377;SDS011;63959;51.960;5.886;2023-08-07T00:42:37;7.50;;;1.40;;
75377;SDS011;63959;51.960;5.886;2023-08-07T00:45:08;6.03;;;1.20;;
75377;SDS011;63959;51.960;5.886;2023-08-07T00:47:37;4.65;;;1.40;;
75377;SDS011;63959;51.960;5.886;2023-08-07T00:50:06;6.00;;;1.55;;
75377;SDS011;63959;51.960;5.886;2023-08-07T00:52:38;5.05;;;0.98;;
75377;SDS011;63959;51.960;5.886;2023-08-07T00:55:07;8.68;;;1.48;;
75377;SDS011;63959;51.960;5.886;2023-08-07T00:57:36;7.40;;;1.55;;
75377;SDS011;63959;51.960;5.886;2023-08-07T01:00:05;5.75;;;1.92;;
75377;SDS011;63959;51.960;5.886;2023-08-07T01:02:34;4.90;;;1.38;;
75377;SDS011;63959;51.960;5.886;2023-08-07T01:05:03;7.40;;;1.60;;
75377;SDS011;63959;51.960;5.886;2023-08-07T01:07:32;7.30;;;1.83;;
75377;SDS011;63959;51.960;5.886;2023-08-07T01:10:04;8.02;;;2.17;;
75377;SDS011;63959;51.960;5.886;2023-08-07T01:12:36;6.70;;;1.40;;
75377;SDS011;63959;51.960;5.886;2023-08-07T01:15:12;8.85;;;2.50;;
75377;SDS011;63959;51.960;5.886;2023-08-07T01:17:42;9.00;;;1.98;;
75377;SDS011;63959;51.960;5.886;2023-08-07T01:20:12;6.25;;;1.58;;
75377;SDS011;63959;51.960;5.886;2023-08-07T01:22:44;9.52;;;1.77;;
75377;SDS011;63959;51.960;5.886;2023-08-07T01:25:12;8.25;;;1.42;;
75377;SDS011;63959;51.960;5.886;2023-08-07T01:27:42;8.77;;;1.70;;
75377;SDS011;63959;51.960;5.886;2023-08-07T01:30:14;7.75;;;2.00;;
75377;SDS011;63959;51.960;5.886;2023-08-07T01:32:49;8.18;;;1.80;;
75377;SDS011;63959;51.960;5.886;2023-08-07T01:35:21;11.85;;;1.88;;
75377;SDS011;63959;51.960;5.886;2023-08-07T01:37:54;8.90;;;1.52;;
75377;SDS011;63959;51.960;5.886;2023-08-07T01:40:25;7.35;;;1.88;;
75377;SDS011;63959;51.960;5.886;2023-08-07T01:42:53;6.28;;;1.52;;
75377;SDS011;63959;51.960;5.886;2023-08-07T01:45:23;12.70;;;2.63;;
75377;SDS011;63959;51.960;5.886;2023-08-07T01:47:52;7.90;;;1.67;;
75377;SDS011;63959;51.960;5.886;2023-08-07T01:50:22;7.35;;;2.00;;
75377;SDS011;63959;51.960;5.886;2023-08-07T01:52:54;9.45;;;2.25;;
75377;SDS011;63959;51.960;5.886;2023-08-07T01:55:23;9.43;;;1.98;;
75377;SDS011;63959;51.960;5.886;2023-08-07T01:57:52;10.45;;;2.45;;
75377;SDS011;63959;51.960;5.886;2023-08-07T02:00:21;9.10;;;2.22;;
75377;SDS011;63959;51.960;5.886;2023-08-07T02:02:50;10.13;;;2.42;;
75377;SDS011;63959;51.960;5.886;2023-08-07T02:05:18;11.88;;;2.38;;
75377;SDS011;63959;51.960;5.886;2023-08-07T02:07:47;7.15;;;2.15;;
75377;SDS011;63959;51.960;5.886;2023-08-07T02:10:18;8.18;;;2.28;;
75377;SDS011;63959;51.960;5.886;2023-08-07T02:12:48;8.02;;;2.40;;
75377;SDS011;63959;51.960;5.886;2023-08-07T02:15:16;7.13;;;2.17;;
75377;SDS011;63959;51.960;5.886;2023-08-07T02:17:49;6.88;;;1.75;;
75377;SDS011;63959;51.960;5.886;2023-08-07T02:20:18;8.60;;;1.92;;
75377;SDS011;63959;51.960;5.886;2023-08-07T02:22:47;6.63;;;2.08;;
75377;SDS011;63959;51.960;5.886;2023-08-07T02:25:15;5.82;;;1.65;;
75377;SDS011;63959;51.960;5.886;2023-08-07T02:27:47;5.97;;;2.00;;
75377;SDS011;63959;51.960;5.886;2023-08-07T02:30:16;10.15;;;2.10;;
75377;SDS011;63959;51.960;5.886;2023-08-07T02:32:44;9.80;;;2.60;;
75377;SDS011;63959;51.960;5.886;2023-08-07T02:35:13;8.60;;;2.03;;
75377;SDS011;63959;51.960;5.886;2023-08-07T02:37:42;7.55;;;2.47;;
75377;SDS011;63959;51.960;5.886;2023-08-07T02:40:11;8.73;;;2.28;;
75377;SDS011;63959;51.960;5.886;2023-08-07T02:42:41;5.68;;;2.20;;
75377;SDS011;63959;51.960;5.886;2023-08-07T02:45:13;8.02;;;1.73;;
75377;SDS011;63959;51.960;5.886;2023-08-07T02:47:41;8.70;;;2.03;;
75377;SDS011;63959;51.960;5.886;2023-08-07T02:50:10;7.47;;;1.95;;
75377;SDS011;63959;51.960;5.886;2023-08-07T02:52:39;8.00;;;2.65;;
75377;SDS011;63959;51.960;5.886;2023-08-07T02:55:07;7.90;;;2.45;;
75377;SDS011;63959;51.960;5.886;2023-08-07T02:57:36;9.05;;;1.90;;
75377;SDS011;63959;51.960;5.886;2023-08-07T03:00:06;7.05;;;2.15;;
75377;SDS011;63959;51.960;5.886;2023-08-07T03:02:37;10.35;;;2.50;;
75377;SDS011;63959;51.960;5.886;2023-08-07T03:05:06;11.38;;;2.53;;
75377;SDS011;63959;51.960;5.886;2023-08-07T03:07:35;8.40;;;2.50;;
75377;SDS011;63959;51.960;5.886;2023-08-07T03:10:04;10.27;;;2.55;;
75377;SDS011;63959;51.960;5.886;2023-08-07T03:12:33;13.48;;;2.25;;
75377;SDS011;63959;51.960;5.886;2023-08-07T03:15:03;11.55;;;2.47;;
75377;SDS011;63959;51.960;5.886;2023-08-07T03:17:32;8.40;;;2.38;;
75377;SDS011;63959;51.960;5.886;2023-08-07T03:20:04;8.85;;;2.83;;
75377;SDS011;63959;51.960;5.886;2023-08-07T03:22:33;13.20;;;2.88;;
75377;SDS011;63959;51.960;5.886;2023-08-07T03:25:02;13.93;;;2.72;;
75377;SDS011;63959;51.960;5.886;2023-08-07T03:27:31;9.20;;;2.05;;
75377;SDS011;63959;51.960;5.886;2023-08-07T03:29:59;12.38;;;2.42;;
75377;SDS011;63959;51.960;5.886;2023-08-07T03:32:29;12.68;;;2.85;;
75377;SDS011;63959;51.960;5.886;2023-08-07T03:34:58;8.98;;;1.88;;
75377;SDS011;63959;51.960;5.886;2023-08-07T03:37:29;12.63;;;2.20;;
75377;SDS011;63959;51.960;5.886;2023-08-07T03:39:58;12.98;;;2.83;;
75377;SDS011;63959;51.960;5.886;2023-08-07T03:42:27;8.07;;;2.20;;
75377;SDS011;63959;51.960;5.886;2023-08-07T03:44:56;9.07;;;2.33;;
75377;SDS011;63959;51.960;5.886;2023-08-07T03:47:24;7.80;;;2.38;;
75377;SDS011;63959;51.960;5.886;2023-08-07T03:49:54;10.77;;;2.58;;
75377;SDS011;63959;51.960;5.886;2023-08-07T03:52:23;9.35;;;2.88;;
75377;SDS011;63959;51.960;5.886;2023-08-07T03:54:54;11.80;;;2.72;;
75377;SDS011;63959;51.960;5.886;2023-08-07T03:57:23;9.80;;;2.40;;
75377;SDS011;63959;51.960;5.886;2023-08-07T03:59:51;12.45;;;2.78;;
75377;SDS011;63959;51.960;5.886;2023-08-07T04:02:20;9.43;;;2.13;;
75377;SDS011;63959;51.960;5.886;2023-08-07T04:04:49;11.13;;;2.20;;
75377;SDS011;63959;51.960;5.886;2023-08-07T04:07:17;8.60;;;2.33;;
75377;SDS011;63959;51.960;5.886;2023-08-07T04:09:46;6.13;;;1.70;;
75377;SDS011;63959;51.960;5.886;2023-08-07T04:12:17;11.35;;;2.72;;
75377;SDS011;63959;51.960;5.886;2023-08-07T04:14:46;9.40;;;2.20;;
75377;SDS011;63959;51.960;5.886;2023-08-07T04:17:15;10.48;;;2.13;;
75377;SDS011;63959;51.960;5.886;2023-08-07T04:19:44;5.82;;;2.05;;
75377;SDS011;63959;51.960;5.886;2023-08-07T04:22:13;9.75;;;2.00;;
75377;SDS011;63959;51.960;5.886;2023-08-07T04:24:42;10.48;;;2.30;;
75377;SDS011;63959;51.960;5.886;2023-08-07T04:27:10;9.98;;;2.10;;
75377;SDS011;63959;51.960;5.886;2023-08-07T04:29:42;9.27;;;2.78;;
75377;SDS011;63959;51.960;5.886;2023-08-07T04:32:11;6.68;;;1.52;;
75377;SDS011;63959;51.960;5.886;2023-08-07T04:34:39;6.68;;;1.80;;
75377;SDS011;63959;51.960;5.886;2023-08-07T04:37:08;10.25;;;1.98;;
75377;SDS011;63959;51.960;5.886;2023-08-07T04:39:36;10.05;;;2.40;;
75377;SDS011;63959;51.960;5.886;2023-08-07T04:42:05;11.13;;;2.33;;
75377;SDS011;63959;51.960;5.886;2023-08-07T04:44:34;7.82;;;2.38;;
75377;SDS011;63959;51.960;5.886;2023-08-07T04:47:05;10.73;;;2.15;;
75377;SDS011;63959;51.960;5.886;2023-08-07T04:49:34;9.45;;;2.60;;
75377;SDS011;63959;51.960;5.886;2023-08-07T04:52:03;8.65;;;2.10;;
75377;SDS011;63959;51.960;5.886;2023-08-07T04:54:31;6.80;;;1.90;;
75377;SDS011;63959;51.960;5.886;2023-08-07T04:57:00;9.40;;;2.13;;
75377;SDS011;63959;51.960;5.886;2023-08-07T04:59:29;6.82;;;1.77;;
75377;SDS011;63959;51.960;5.886;2023-08-07T05:01:57;10.15;;;2.88;;
75377;SDS011;63959;51.960;5.886;2023-08-07T05:04:29;5.80;;;2.15;;
75377;SDS011;63959;51.960;5.886;2023-08-07T05:06:57;7.88;;;2.40;;
75377;SDS011;63959;51.960;5.886;2023-08-07T05:09:26;10.40;;;2.72;;
75377;SDS011;63959;51.960;5.886;2023-08-07T05:11:55;11.68;;;2.75;;
75377;SDS011;63959;51.960;5.886;2023-08-07T05:14:23;12.75;;;2.47;;
75377;SDS011;63959;51.960;5.886;2023-08-07T05:16:52;8.18;;;2.72;;
75377;SDS011;63959;51.960;5.886;2023-08-07T05:19:21;8.75;;;2.97;;
75377;SDS011;63959;51.960;5.886;2023-08-07T05:21:52;10.60;;;2.83;;
75377;SDS011;63959;51.960;5.886;2023-08-07T05:24:21;6.82;;;2.38;;
75377;SDS011;63959;51.960;5.886;2023-08-07T05:26:49;6.95;;;2.28;;
75377;SDS011;63959;51.960;5.886;2023-08-07T05:29:18;11.57;;;2.95;;
75377;SDS011;63959;51.960;5.886;2023-08-07T05:31:47;9.88;;;2.55;;
75377;SDS011;63959;51.960;5.886;2023-08-07T05:34:16;7.63;;;2.10;;
75377;SDS011;63959;51.960;5.886;2023-08-07T05:36:44;8.35;;;2.33;;
75377;SDS011;63959;51.960;5.886;2023-08-07T05:39:16;8.50;;;2.20;;
75377;SDS011;63959;51.960;5.886;2023-08-07T05:41:44;12.10;;;2.75;;
75377;SDS011;63959;51.960;5.886;2023-08-07T05:44:13;13.27;;;2.88;;
75377;SDS011;63959;51.960;5.886;2023-08-07T05:46:41;7.80;;;2.75;;
75377;SDS011;63959;51.960;5.886;2023-08-07T05:49:10;12.00;;;2.65;;
75377;SDS011;63959;51.960;5.886;2023-08-07T05:51:39;8.88;;;2.58;;
75377;SDS011;63959;51.960;5.886;2023-08-07T05:54:07;11.73;;;3.20;;
75377;SDS011;63959;51.960;5.886;2023-08-07T05:56:40;7.97;;;2.85;;
75377;SDS011;63959;51.960;5.886;2023-08-07T05:59:09;9.20;;;3.00;;
75377;SDS011;63959;51.960;5.886;2023-08-07T06:01:38;10.60;;;2.40;;
75377;SDS011;63959;51.960;5.886;2023-08-07T06:04:07;10.43;;;2.65;;
75377;SDS011;63959;51.960;5.886;2023-08-07T06:06:36;9.00;;;2.70;;
75377;SDS011;63959;51.960;5.886;2023-08-07T06:09:05;8.05;;;2.67;;
75377;SDS011;63959;51.960;5.886;2023-08-07T06:11:33;13.15;;;2.90;;
75377;SDS011;63959;51.960;5.886;2023-08-07T06:14:05;14.18;;;3.28;;
75377;SDS011;63959;51.960;5.886;2023-08-07T06:16:33;6.90;;;2.33;;
75377;SDS011;63959;51.960;5.886;2023-08-07T06:19:02;9.75;;;2.65;;
75377;SDS011;63959;51.960;5.886;2023-08-07T06:21:31;9.73;;;2.50;;
75377;SDS011;63959;51.960;5.886;2023-08-07T06:24:00;11.75;;;3.25;;
75377;SDS011;63959;51.960;5.886;2023-08-07T06:26:28;10.85;;;2.88;;
75377;SDS011;63959;51.960;5.886;2023-08-07T06:28:57;9.23;;;2.55;;
75377;SDS011;63959;51.960;5.886;2023-08-07T06:31:29;8.75;;;2.30;;
75377;SDS011;63959;51.960;5.886;2023-08-07T06:33:57;7.50;;;2.22;;
75377;SDS011;63959;51.960;5.886;2023-08-07T06:36:26;7.80;;;2.60;;
75377;SDS011;63959;51.960;5.886;2023-08-07T06:38:55;9.98;;;2.95;;
75377;SDS011;63959;51.960;5.886;2023-08-07T06:41:23;9.75;;;2.63;;
75377;SDS011;63959;51.960;5.886;2023-08-07T06:43:52;10.65;;;2.65;;
75377;SDS011;63959;51.960;5.886;2023-08-07T06:46:21;12.18;;;3.17;;
75377;SDS011;63959;51.960;5.886;2023-08-07T06:48:55;7.90;;;2.00;;
75377;SDS011;63959;51.960;5.886;2023-08-07T06:51:23;10.52;;;2.58;;
75377;SDS011;63959;51.960;5.886;2023-08-07T06:53:52;9.82;;;2.60;;
75377;SDS011;63959;51.960;5.886;2023-08-07T06:56:21;13.55;;;2.92;;
75377;SDS011;63959;51.960;5.886;2023-08-07T06:58:49;12.68;;;2.83;;
75377;SDS011;63959;51.960;5.886;2023-08-07T07:01:18;10.32;;;2.85;;
75377;SDS011;63959;51.960;5.886;2023-08-07T07:03:46;8.20;;;2.63;;
75377;SDS011;63959;51.960;5.886;2023-08-07T07:06:20;8.20;;;2.45;;
75377;SDS011;63959;51.960;5.886;2023-08-07T07:08:51;14.10;;;3.25;;
75377;SDS011;63959;51.960;5.886;2023-08-07T07:11:20;11.63;;;3.00;;
75377;SDS011;63959;51.960;5.886;2023-08-07T07:13:50;10.35;;;2.50;;
75377;SDS011;63959;51.960;5.886;2023-08-07T07:16:19;9.05;;;2.40;;
75377;SDS011;63959;51.960;5.886;2023-08-07T07:18:47;10.00;;;2.75;;
75377;SDS011;63959;51.960;5.886;2023-08-07T07:21:16;10.52;;;3.58;;
75377;SDS011;63959;51.960;5.886;2023-08-07T07:23:48;14.88;;;3.17;;
75377;SDS011;63959;51.960;5.886;2023-08-07T07:26:17;13.77;;;4.18;;
75377;SDS011;63959;51.960;5.886;2023-08-07T07:28:45;10.27;;;2.42;;
75377;SDS011;63959;51.960;5.886;2023-08-07T07:31:16;11.23;;;2.58;;
75377;SDS011;63959;51.960;5.886;2023-08-07T07:33:45;8.73;;;2.10;;
75377;SDS011;63959;51.960;5.886;2023-08-07T07:36:15;9.68;;;2.83;;
75377;SDS011;63959;51.960;5.886;2023-08-07T07:38:45;10.95;;;2.70;;
75377;SDS011;63959;51.960;5.886;2023-08-07T07:41:16;8.25;;;2.67;;
75377;SDS011;63959;51.960;5.886;2023-08-07T07:43:46;10.65;;;2.78;;
75377;SDS011;63959;51.960;5.886;2023-08-07T07:46:14;10.20;;;2.60;;
75377;SDS011;63959;51.960;5.886;2023-08-07T07:48:43;9.18;;;2.75;;
75377;SDS011;63959;51.960;5.886;2023-08-07T07:51:12;10.40;;;2.88;;
75377;SDS011;63959;51.960;5.886;2023-08-07T07:53:40;11.38;;;2.85;;
75377;SDS011;63959;51.960;5.886;2023-08-07T07:56:09;8.63;;;2.42;;
75377;SDS011;63959;51.960;5.886;2023-08-07T07:58:41;10.80;;;2.78;;
75377;SDS011;63959;51.960;5.886;2023-08-07T08:01:09;16.50;;;3.95;;
75377;SDS011;63959;51.960;5.886;2023-08-07T08:03:38;11.77;;;3.78;;
75377;SDS011;63959;51.960;5.886;2023-08-07T08:06:09;12.10;;;3.03;;
75377;SDS011;63959;51.960;5.886;2023-08-07T08:08:39;14.18;;;3.60;;
75377;SDS011;63959;51.960;5.886;2023-08-07T08:11:08;11.88;;;2.75;;
75377;SDS011;63959;51.960;5.886;2023-08-07T08:13:37;8.27;;;2.70;;
75377;SDS011;63959;51.960;5.886;2023-08-07T08:16:09;10.82;;;3.40;;
75377;SDS011;63959;51.960;5.886;2023-08-07T08:18:38;9.40;;;2.83;;
75377;SDS011;63959;51.960;5.886;2023-08-07T08:21:06;7.63;;;2.45;;
75377;SDS011;63959;51.960;5.886;2023-08-07T08:23:35;8.73;;;3.00;;
75377;SDS011;63959;51.960;5.886;2023-08-07T08:26:04;9.52;;;2.67;;
75377;SDS011;63959;51.960;5.886;2023-08-07T08:28:32;11.40;;;2.67;;
75377;SDS011;63959;51.960;5.886;2023-08-07T08:31:01;12.95;;;2.95;;
75377;SDS011;63959;51.960;5.886;2023-08-07T08:33:32;12.57;;;2.85;;
75377;SDS011;63959;51.960;5.886;2023-08-07T08:36:01;9.35;;;2.92;;
75377;SDS011;63959;51.960;5.886;2023-08-07T08:38:30;10.30;;;2.60;;
75377;SDS011;63959;51.960;5.886;2023-08-07T08:40:59;10.55;;;3.10;;
75377;SDS011;63959;51.960;5.886;2023-08-07T08:43:29;13.57;;;3.20;;
75377;SDS011;63959;51.960;5.886;2023-08-07T08:46:01;11.10;;;2.72;;
75377;SDS011;63959;51.960;5.886;2023-08-07T08:48:33;9.07;;;2.63;;
75377;SDS011;63959;51.960;5.886;2023-08-07T08:51:03;10.15;;;3.42;;
75377;SDS011;63959;51.960;5.886;2023-08-07T08:53:32;11.32;;;2.78;;
75377;SDS011;63959;51.960;5.886;2023-08-07T08:56:01;13.05;;;3.20;;
75377;SDS011;63959;51.960;5.886;2023-08-07T08:58:29;7.78;;;2.42;;
75377;SDS011;63959;51.960;5.886;2023-08-07T09:00:59;10.93;;;3.13;;
75377;SDS011;63959;51.960;5.886;2023-08-07T09:03:28;7.82;;;2.65;;
75377;SDS011;63959;51.960;5.886;2023-08-07T09:06:00;10.82;;;2.92;;
75377;SDS011;63959;51.960;5.886;2023-08-07T09:08:31;12.25;;;3.67;;
75377;SDS011;63959;51.960;5.886;2023-08-07T09:11:00;12.75;;;3.30;;
75377;SDS011;63959;51.960;5.886;2023-08-07T09:13:29;8.52;;;2.80;;
75377;SDS011;63959;51.960;5.886;2023-08-07T09:15:59;9.98;;;2.35;;
75377;SDS011;63959;51.960;5.886;2023-08-07T09:18:28;8.18;;;2.40;;
75377;SDS011;63959;51.960;5.886;2023-08-07T09:21:00;9.13;;;2.78;;
75377;SDS011;63959;51.960;5.886;2023-08-07T09:23:28;10.68;;;2.80;;
75377;SDS011;63959;51.960;5.886;2023-08-07T09:26:00;8.27;;;2.45;;
75377;SDS011;63959;51.960;5.886;2023-08-07T09:28:29;9.85;;;2.67;;
75377;SDS011;63959;51.960;5.886;2023-08-07T09:30:58;8.48;;;2.67;;
75377;SDS011;63959;51.960;5.886;2023-08-07T09:33:27;9.55;;;2.30;;
75377;SDS011;63959;51.960;5.886;2023-08-07T09:36:00;6.72;;;2.80;;
75377;SDS011;63959;51.960;5.886;2023-08-07T09:38:29;8.20;;;2.63;;
75377;SDS011;63959;51.960;5.886;2023-08-07T09:40:58;9.48;;;2.78;;
75377;SDS011;63959;51.960;5.886;2023-08-07T09:43:29;10.00;;;2.22;;
75377;SDS011;63959;51.960;5.886;2023-08-07T09:46:03;10.50;;;2.60;;
75377;SDS011;63959;51.960;5.886;2023-08-07T09:48:32;12.35;;;2.35;;
75377;SDS011;63959;51.960;5.886;2023-08-07T09:51:10;10.35;;;2.30;;
75377;SDS011;63959;51.960;5.886;2023-08-07T09:53:39;9.95;;;2.25;;
75377;SDS011;63959;51.960;5.886;2023-08-07T09:56:08;10.80;;;2.55;;
75377;SDS011;63959;51.960;5.886;2023-08-07T09:58:36;8.25;;;2.08;;
75377;SDS011;63959;51.960;5.886;2023-08-07T10:01:07;9.65;;;2.20;;
75377;SDS011;63959;51.960;5.886;2023-08-07T10:03:36;6.75;;;2.33;;
75377;SDS011;63959;51.960;5.886;2023-08-07T10:06:05;8.02;;;2.10;;
75377;SDS011;63959;51.960;5.886;2023-08-07T10:08:38;7.82;;;2.05;;
75377;SDS011;63959;51.960;5.886;2023-08-07T10:11:08;8.07;;;2.42;;
75377;SDS011;63959;51.960;5.886;2023-08-07T10:13:37;6.78;;;2.08;;
75377;SDS011;63959;51.960;5.886;2023-08-07T10:16:06;8.30;;;2.33;;
75377;SDS011;63959;51.960;5.886;2023-08-07T10:18:35;6.43;;;2.05;;
75377;SDS011;63959;51.960;5.886;2023-08-07T10:21:04;9.55;;;2.60;;
75377;SDS011;63959;51.960;5.886;2023-08-07T10:23:34;10.85;;;3.03;;
75377;SDS011;63959;51.960;5.886;2023-08-07T10:26:06;11.18;;;2.05;;
75377;SDS011;63959;51.960;5.886;2023-08-07T10:28:37;8.40;;;1.90;;
75377;SDS011;63959;51.960;5.886;2023-08-07T10:31:07;9.35;;;2.25;;
75377;SDS011;63959;51.960;5.886;2023-08-07T10:33:37;7.70;;;2.05;;
75377;SDS011;63959;51.960;5.886;2023-08-07T10:36:09;6.88;;;2.67;;
75377;SDS011;63959;51.960;5.886;2023-08-07T10:38:39;8.63;;;2.08;;
75377;SDS011;63959;51.960;5.886;2023-08-07T10:41:12;6.88;;;2.20;;
75377;SDS011;63959;51.960;5.886;2023-08-07T10:43:41;9.68;;;2.05;;
75377;SDS011;63959;51.960;5.886;2023-08-07T10:46:10;9.50;;;2.70;;
75377;SDS011;63959;51.960;5.886;2023-08-07T10:48:40;10.10;;;2.42;;
75377;SDS011;63959;51.960;5.886;2023-08-07T10:51:11;7.03;;;2.15;;
75377;SDS011;63959;51.960;5.886;2023-08-07T10:53:41;7.32;;;2.30;;
75377;SDS011;63959;51.960;5.886;2023-08-07T10:56:14;11.15;;;2.55;;
75377;SDS011;63959;51.960;5.886;2023-08-07T10:58:49;13.35;;;2.80;;
75377;SDS011;63959;51.960;5.886;2023-08-07T11:01:19;8.23;;;2.03;;
75377;SDS011;63959;51.960;5.886;2023-08-07T11:03:49;7.82;;;2.03;;
75377;SDS011;63959;51.960;5.886;2023-08-07T11:06:22;5.53;;;1.75;;
75377;SDS011;63959;51.960;5.886;2023-08-07T11:08:52;6.43;;;2.08;;
75377;SDS011;63959;51.960;5.886;2023-08-07T11:11:23;6.05;;;1.90;;
75377;SDS011;63959;51.960;5.886;2023-08-07T11:13:52;10.13;;;2.38;;
75377;SDS011;63959;51.960;5.886;2023-08-07T11:16:21;7.55;;;1.88;;
75377;SDS011;63959;51.960;5.886;2023-08-07T11:18:50;6.80;;;1.90;;
75377;SDS011;63959;51.960;5.886;2023-08-07T11:21:18;5.20;;;1.40;;
75377;SDS011;63959;51.960;5.886;2023-08-07T11:23:47;6.18;;;2.17;;
75377;SDS011;63959;51.960;5.886;2023-08-07T11:26:16;8.23;;;1.92;;
75377;SDS011;63959;51.960;5.886;2023-08-07T11:28:50;8.95;;;2.13;;
75377;SDS011;63959;51.960;5.886;2023-08-07T11:31:18;9.80;;;2.30;;
75377;SDS011;63959;51.960;5.886;2023-08-07T11:33:49;6.75;;;2.08;;
75377;SDS011;63959;51.960;5.886;2023-08-07T11:36:18;8.68;;;1.92;;
75377;SDS011;63959;51.960;5.886;2023-08-07T11:38:47;8.80;;;2.10;;
75377;SDS011;63959;51.960;5.886;2023-08-07T11:41:15;8.60;;;2.15;;
75377;SDS011;63959;51.960;5.886;2023-08-07T11:43:45;6.68;;;2.13;;
75377;SDS011;63959;51.960;5.886;2023-08-07T11:46:16;10.98;;;2.10;;
75377;SDS011;63959;51.960;5.886;2023-08-07T11:48:45;6.22;;;1.80;;
75377;SDS011;63959;51.960;5.886;2023-08-07T11:51:13;5.07;;;1.63;;
75377;SDS011;63959;51.960;5.886;2023-08-07T11:53:42;7.00;;;2.22;;
75377;SDS011;63959;51.960;5.886;2023-08-07T11:56:11;9.27;;;1.80;;
75377;SDS011;63959;51.960;5.886;2023-08-07T11:58:42;7.78;;;2.17;;
75377;SDS011;63959;51.960;5.886;2023-08-07T12:01:12;8.13;;;2.05;;
75377;SDS011;63959;51.960;5.886;2023-08-07T12:03:49;8.68;;;2.10;;
75377;SDS011;63959;51.960;5.886;2023-08-07T12:06:18;6.75;;;2.10;;
75377;SDS011;63959;51.960;5.886;2023-08-07T12:08:48;8.77;;;2.30;;
75377;SDS011;63959;51.960;5.886;2023-08-07T12:11:17;6.32;;;1.98;;
75377;SDS011;63959;51.960;5.886;2023-08-07T12:13:46;6.53;;;2.10;;
75377;SDS011;63959;51.960;5.886;2023-08-07T12:16:16;6.68;;;1.88;;
75377;SDS011;63959;51.960;5.886;2023-08-07T12:18:48;6.90;;;1.95;;
75377;SDS011;63959;51.960;5.886;2023-08-07T12:21:17;5.57;;;2.05;;
75377;SDS011;63959;51.960;5.886;2023-08-07T12:23:48;9.57;;;2.83;;
75377;SDS011;63959;51.960;5.886;2023-08-07T12:26:17;7.15;;;1.90;;
75377;SDS011;63959;51.960;5.886;2023-08-07T12:28:46;7.25;;;2.17;;
75377;SDS011;63959;51.960;5.886;2023-08-07T12:31:15;6.88;;;1.90;;
75377;SDS011;63959;51.960;5.886;2023-08-07T12:33:47;11.02;;;2.20;;
75377;SDS011;63959;51.960;5.886;2023-08-07T12:36:15;6.70;;;1.60;;
75377;SDS011;63959;51.960;5.886;2023-08-07T12:38:44;6.95;;;1.90;;
75377;SDS011;63959;51.960;5.886;2023-08-07T12:41:13;8.18;;;2.55;;
75377;SDS011;63959;51.960;5.886;2023-08-07T12:43:42;6.22;;;1.92;;
75377;SDS011;63959;51.960;5.886;2023-08-07T12:46:10;8.73;;;2.10;;
75377;SDS011;63959;51.960;5.886;2023-08-07T12:48:39;7.35;;;2.05;;
75377;SDS011;63959;51.960;5.886;2023-08-07T12:51:10;7.47;;;1.80;;
75377;SDS011;63959;51.960;5.886;2023-08-07T12:53:39;7.75;;;2.45;;
75377;SDS011;63959;51.960;5.886;2023-08-07T12:56:07;7.43;;;1.83;;
75377;SDS011;63959;51.960;5.886;2023-08-07T12:58:36;7.53;;;2.15;;
75377;SDS011;63959;51.960;5.886;2023-08-07T13:01:05;8.63;;;1.90;;
75377;SDS011;63959;51.960;5.886;2023-08-07T13:03:33;8.82;;;2.03;;
75377;SDS011;63959;51.960;5.886;2023-08-07T13:06:02;6.35;;;1.70;;
75377;SDS011;63959;51.960;5.886;2023-08-07T13:08:36;5.80;;;1.55;;
75377;SDS011;63959;51.960;5.886;2023-08-07T13:11:05;6.05;;;1.75;;
75377;SDS011;63959;51.960;5.886;2023-08-07T13:13:34;7.15;;;2.22;;
75377;SDS011;63959;51.960;5.886;2023-08-07T13:16:03;7.70;;;2.38;;
75377;SDS011;63959;51.960;5.886;2023-08-07T13:18:32;6.18;;;2.20;;
75377;SDS011;63959;51.960;5.886;2023-08-07T13:21:01;7.85;;;2.22;;
75377;SDS011;63959;51.960;5.886;2023-08-07T13:23:29;9.20;;;2.22;;
75377;SDS011;63959;51.960;5.886;2023-08-07T13:26:01;7.30;;;1.80;;
75377;SDS011;63959;51.960;5.886;2023-08-07T13:28:29;6.68;;;1.80;;
75377;SDS011;63959;51.960;5.886;2023-08-07T13:30:58;7.57;;;2.20;;
75377;SDS011;63959;51.960;5.886;2023-08-07T13:33:27;4.05;;;1.60;;
75377;SDS011;63959;51.960;5.886;2023-08-07T13:35:56;5.05;;;1.45;;
75377;SDS011;63959;51.960;5.886;2023-08-07T13:38:24;5.28;;;1.58;;
75377;SDS011;63959;51.960;5.886;2023-08-07T13:40:53;7.07;;;1.80;;
75377;SDS011;63959;51.960;5.886;2023-08-07T13:43:24;5.72;;;1.67;;
75377;SDS011;63959;51.960;5.886;2023-08-07T13:45:53;6.60;;;2.10;;
75377;SDS011;63959;51.960;5.886;2023-08-07T13:48:21;5.93;;;1.48;;
75377;SDS011;63959;51.960;5.886;2023-08-07T13:50:52;5.28;;;1.40;;
75377;SDS011;63959;51.960;5.886;2023-08-07T13:53:21;5.43;;;1.50;;
75377;SDS011;63959;51.960;5.886;2023-08-07T13:55:49;5.55;;;1.33;;
75377;SDS011;63959;51.960;5.886;2023-08-07T13:58:18;5.05;;;1.85;;
75377;SDS011;63959;51.960;5.886;2023-08-07T14:00:49;5.75;;;1.73;;
75377;SDS011;63959;51.960;5.886;2023-08-07T14:03:18;7.28;;;2.28;;
75377;SDS011;63959;51.960;5.886;2023-08-07T14:05:46;4.47;;;1.50;;
75377;SDS011;63959;51.960;5.886;2023-08-07T14:08:15;6.43;;;1.55;;
75377;SDS011;63959;51.960;5.886;2023-08-07T14:10:44;5.57;;;1.58;;
75377;SDS011;63959;51.960;5.886;2023-08-07T14:13:13;5.90;;;1.55;;
75377;SDS011;63959;51.960;5.886;2023-08-07T14:15:41;5.38;;;1.45;;
75377;SDS011;63959;51.960;5.886;2023-08-07T14:18:13;5.25;;;1.35;;
75377;SDS011;63959;51.960;5.886;2023-08-07T14:20:41;6.55;;;1.70;;
75377;SDS011;63959;51.960;5.886;2023-08-07T14:23:10;4.65;;;1.33;;
75377;SDS011;63959;51.960;5.886;2023-08-07T14:25:39;5.13;;;1.65;;
75377;SDS011;63959;51.960;5.886;2023-08-07T14:28:08;4.65;;;1.45;;
75377;SDS011;63959;51.960;5.886;2023-08-07T14:30:37;5.93;;;1.50;;
75377;SDS011;63959;51.960;5.886;2023-08-07T14:33:05;4.55;;;1.50;;
75377;SDS011;63959;51.960;5.886;2023-08-07T14:35:36;7.03;;;1.80;;
75377;SDS011;63959;51.960;5.886;2023-08-07T14:38:05;5.90;;;1.45;;
75377;SDS011;63959;51.960;5.886;2023-08-07T14:40:34;4.25;;;1.20;;
75377;SDS011;63959;51.960;5.886;2023-08-07T14:43:05;3.60;;;1.08;;
75377;SDS011;63959;51.960;5.886;2023-08-07T14:45:33;5.65;;;1.58;;
75377;SDS011;63959;51.960;5.886;2023-08-07T14:48:02;6.70;;;1.95;;
75377;SDS011;63959;51.960;5.886;2023-08-07T14:50:32;7.93;;;1.40;;
75377;SDS011;63959;51.960;5.886;2023-08-07T14:53:03;5.55;;;1.20;;
75377;SDS011;63959;51.960;5.886;2023-08-07T14:55:32;3.83;;;1.10;;